createdAt,value
2018-06-08T00:01:09.080Z,4.80
2018-06-08T00:06:12.682Z,4.73
2018-06-08T00:11:16.275Z,4.60
2018-06-08T00:16:19.942Z,5.20
2018-06-08T00:21:23.590Z,4.80
2018-06-08T00:26:27.380Z,4.60
2018-06-08T00:31:31.889Z,4.90
2018-06-08T00:36:35.458Z,5.10
2018-06-08T00:41:39.040Z,5.43
2018-06-08T00:46:43.707Z,5.10
2018-06-08T00:51:47.324Z,5.30
2018-06-08T00:57:03.123Z,5.37
2018-06-08T01:02:06.823Z,4.70
2018-06-08T01:07:11.836Z,4.10
2018-06-08T01:12:15.405Z,4.93
2018-06-08T01:17:18.976Z,4.80
2018-06-08T01:22:23.500Z,4.70
2018-06-08T01:27:27.860Z,4.70
2018-06-08T01:32:31.139Z,4.90
2018-06-08T01:37:35.085Z,5.10
2018-06-08T01:42:39.371Z,5.23
2018-06-08T01:47:43.372Z,5.07
2018-06-08T01:52:46.979Z,4.60
2018-06-08T01:57:50.731Z,4.27
2018-06-08T02:02:54.693Z,4.83
2018-06-08T02:07:58.307Z,4.80
2018-06-08T02:13:02.140Z,5.23
2018-06-08T02:18:05.988Z,4.63
2018-06-08T02:23:09.524Z,4.90
2018-06-08T02:28:13.788Z,4.17
2018-06-08T02:33:17.411Z,4.27
2018-06-08T02:38:21.058Z,4.40
2018-06-08T02:43:24.979Z,3.80
2018-06-08T02:48:29.200Z,4.33
2018-06-08T02:53:34.988Z,4.50
2018-06-08T02:58:38.581Z,4.27
2018-06-08T03:03:43.036Z,4.20
2018-06-08T03:08:46.607Z,4.17
2018-06-08T03:13:50.366Z,4.00
2018-06-08T03:18:54.563Z,4.03
2018-06-08T03:23:59.268Z,4.33
2018-06-08T03:29:02.847Z,3.93
2018-06-08T03:34:06.548Z,4.40
2018-06-08T03:39:10.343Z,4.47
2018-06-08T03:44:16.205Z,4.43
2018-06-08T03:49:19.844Z,4.57
2018-06-08T03:54:40.008Z,3.70
2018-06-08T03:59:50.654Z,4.03
2018-06-08T04:04:54.331Z,4.20
2018-06-08T04:09:58.165Z,4.83
2018-06-08T04:15:01.938Z,5.50
2018-06-08T04:20:05.665Z,4.57
2018-06-08T04:25:12.066Z,5.80
2018-06-08T04:30:16.635Z,4.73
2018-06-08T04:35:20.534Z,4.07
2018-06-08T04:40:24.179Z,4.20
2018-06-08T04:45:28.485Z,4.50
2018-06-08T04:50:32.085Z,4.60
2018-06-08T04:55:35.705Z,4.70
2018-06-08T05:00:39.489Z,5.03
2018-06-08T05:05:43.367Z,4.80
2018-06-08T05:10:47.027Z,5.20
2018-06-08T05:15:50.600Z,5.33
2018-06-08T05:20:53.941Z,5.87
2018-06-08T05:25:59.738Z,5.40
2018-06-08T05:31:03.684Z,6.20
2018-06-08T05:36:07.269Z,5.40
2018-06-08T05:41:10.822Z,5.70
2018-06-08T05:46:14.383Z,6.40
2018-06-08T05:51:18.053Z,5.73
2018-06-08T05:56:23.524Z,6.10
2018-06-08T06:01:27.065Z,6.90
2018-06-08T06:06:30.711Z,5.97
2018-06-08T06:11:38.352Z,6.43
2018-06-08T06:16:42.687Z,6.40
2018-06-08T06:21:46.619Z,6.20
2018-06-08T06:26:50.311Z,5.40
2018-06-08T06:31:55.863Z,6.00
2018-06-08T06:36:59.475Z,6.93
2018-06-08T06:42:03.125Z,6.20
2018-06-08T06:47:06.991Z,6.10
2018-06-08T06:52:10.580Z,6.47
2018-06-08T06:57:14.233Z,7.47
2018-06-08T07:02:18.108Z,7.70
2018-06-08T07:07:30.829Z,7.47
2018-06-08T07:12:34.652Z,8.83
2018-06-08T07:17:38.643Z,7.70
2018-06-08T07:22:42.365Z,8.50
2018-06-08T07:27:46.263Z,7.53
2018-06-08T07:32:50.638Z,8.40
2018-06-08T07:37:54.232Z,7.77
2018-06-08T07:42:57.868Z,11.10
2018-06-08T07:48:01.677Z,9.47
2018-06-08T07:53:05.647Z,11.10
2018-06-08T07:58:09.336Z,7.73
2018-06-08T08:03:13.528Z,11.67
2018-06-08T08:08:17.371Z,9.20
2018-06-08T08:13:21.145Z,11.30
2018-06-08T08:18:24.396Z,12.23
2018-06-08T08:23:28.343Z,13.30
2018-06-08T08:28:32.325Z,12.60
2018-06-08T08:33:35.912Z,28.27
2018-06-08T08:38:39.478Z,12.77
2018-06-08T08:43:49.784Z,13.67
2018-06-08T08:48:53.343Z,17.13
2018-06-08T08:53:56.888Z,15.07
2018-06-08T08:59:01.344Z,12.53
2018-06-08T09:04:05.173Z,12.90
2018-06-08T09:09:08.778Z,12.20
2018-06-08T09:14:13.284Z,14.47
2018-06-08T09:19:17.547Z,12.33
2018-06-08T09:24:21.958Z,12.93
2018-06-08T09:29:25.956Z,11.93
2018-06-08T09:34:29.552Z,14.03
2018-06-08T09:39:33.149Z,13.93
2018-06-08T09:44:36.791Z,13.03
2018-06-08T09:49:55.649Z,13.50
2018-06-08T09:54:59.280Z,14.00
2018-06-08T10:00:02.904Z,13.67
2018-06-08T10:05:06.774Z,13.50
2018-06-08T10:10:10.495Z,13.80
2018-06-08T10:15:14.257Z,12.67
2018-06-08T10:20:17.941Z,14.57
2018-06-08T10:25:21.556Z,11.70
2018-06-08T10:30:25.174Z,11.97
2018-06-08T10:35:28.431Z,12.70
2018-06-08T10:40:32.985Z,9.30
2018-06-08T10:45:36.921Z,10.50
2018-06-08T10:50:40.614Z,11.90
2018-06-08T10:55:44.997Z,13.03
2018-06-08T11:00:49.672Z,11.27
2018-06-08T11:05:54.196Z,11.43
2018-06-08T11:10:58.120Z,10.90
2018-06-08T11:16:01.769Z,7.73
2018-06-08T11:21:06.526Z,8.13
2018-06-08T11:26:10.698Z,10.60
2018-06-08T11:31:14.399Z,9.63
2018-06-08T11:36:17.979Z,9.13
2018-06-08T11:41:22.135Z,9.13
2018-06-08T11:46:25.754Z,7.97
2018-06-08T11:51:31.192Z,8.80
2018-06-08T11:56:35.350Z,7.70
2018-06-08T12:01:38.798Z,7.43
2018-06-08T12:06:42.859Z,7.60
2018-06-08T12:11:46.777Z,8.00
2018-06-08T12:16:50.474Z,7.37
2018-06-08T12:21:53.901Z,6.97
2018-06-08T12:26:57.560Z,7.17
2018-06-08T12:32:01.256Z,6.50
2018-06-08T12:37:05.042Z,7.83
2018-06-08T12:42:09.186Z,8.20
2018-06-08T12:47:13.164Z,7.40
2018-06-08T12:52:17.653Z,6.87
2018-06-08T12:57:21.432Z,6.50
2018-06-08T13:02:25.157Z,6.10
2018-06-08T13:07:29.315Z,6.90
2018-06-08T13:12:32.708Z,6.20
2018-06-08T13:17:36.315Z,6.43
2018-06-08T13:22:49.887Z,5.73
2018-06-08T13:28:02.874Z,6.00
2018-06-08T13:39:03.100Z,4.90
2018-06-08T13:44:07.885Z,5.00
2018-06-08T13:49:18.286Z,6.83
2018-06-08T13:54:22.411Z,6.27
2018-06-08T13:59:27.045Z,5.67
2018-06-08T14:04:32.080Z,5.90
2018-06-08T14:09:37.195Z,6.30
2018-06-08T14:14:42.297Z,5.50
2018-06-08T14:19:46.499Z,5.90
2018-06-08T14:24:50.583Z,5.50
2018-06-08T14:29:54.442Z,5.17
2018-06-08T14:34:58.635Z,6.13
2018-06-08T14:40:02.277Z,5.70
2018-06-08T14:45:09.076Z,8.47
2018-06-08T14:50:13.330Z,9.20
2018-06-08T14:55:19.218Z,8.20
2018-06-08T15:00:25.430Z,8.43
2018-06-08T15:05:29.353Z,15.90
2018-06-08T15:10:35.110Z,15.30
2018-06-08T15:15:39.132Z,13.67
2018-06-08T15:20:44.950Z,10.50
2018-06-08T15:25:48.535Z,10.63
2018-06-08T15:31:01.666Z,10.40
2018-06-08T15:36:09.864Z,9.20
2018-06-08T15:41:15.420Z,7.93
2018-06-08T15:46:22.149Z,7.30
2018-06-08T15:51:26.044Z,7.33
2018-06-08T15:56:31.768Z,6.97
2018-06-08T16:01:35.907Z,11.17
2018-06-08T16:06:39.656Z,9.47
2018-06-08T16:11:44.892Z,8.20
2018-06-08T16:16:48.904Z,8.73
2018-06-08T16:21:54.705Z,9.47
2018-06-08T16:27:00.124Z,9.27
2018-06-08T16:32:05.084Z,9.40
2018-06-08T16:37:08.917Z,9.43
2018-06-08T16:42:14.429Z,9.07
2018-06-08T16:47:18.758Z,7.40
2018-06-08T16:52:22.551Z,10.93
2018-06-08T16:57:26.996Z,11.43
2018-06-08T17:02:36.665Z,10.30
2018-06-08T17:07:40.436Z,10.17
2018-06-08T17:12:45.105Z,13.10
2018-06-08T17:17:48.982Z,12.60
2018-06-08T17:22:52.702Z,13.80
2018-06-08T17:27:56.489Z,10.60
2018-06-08T17:33:00.228Z,10.27
2018-06-08T17:38:04.815Z,13.00
2018-06-08T17:43:09.267Z,13.47
2018-06-08T17:48:14.923Z,10.90
2018-06-08T17:53:22.173Z,10.30
2018-06-08T17:58:26.459Z,9.80
2018-06-08T18:03:30.919Z,9.20
2018-06-08T18:08:34.982Z,9.37
2018-06-08T18:19:09.058Z,7.80
2018-06-08T18:24:13.052Z,8.67
2018-06-08T18:29:17.198Z,8.00
2018-06-08T18:34:20.982Z,9.40
2018-06-08T18:39:24.727Z,10.07
2018-06-08T18:44:29.559Z,11.67
2018-06-08T18:49:33.325Z,11.70
2018-06-08T18:54:38.380Z,10.97
2018-06-08T18:59:55.581Z,10.80
2018-06-08T19:05:04.240Z,10.97
2018-06-08T19:10:08.469Z,10.60
2018-06-08T19:15:13.171Z,9.90
2018-06-08T19:20:17.812Z,9.67
2018-06-08T19:25:23.232Z,10.47
2018-06-08T19:30:33.442Z,9.60
2018-06-08T19:35:50.647Z,10.10
2018-06-08T19:40:56.526Z,9.60
2018-06-08T19:46:05.273Z,9.63
2018-06-08T19:51:16.354Z,9.57
2018-06-08T19:56:23.584Z,10.00
2018-06-08T20:01:31.040Z,9.33
2018-06-08T20:06:34.804Z,10.10
2018-06-08T20:11:38.796Z,9.90
2018-06-08T20:16:43.663Z,10.53
2018-06-08T20:21:47.236Z,11.90
2018-06-08T20:26:50.846Z,11.40
2018-06-08T20:31:54.974Z,10.27
2018-06-08T20:36:58.941Z,10.17
2018-06-08T20:42:02.932Z,10.90
2018-06-08T20:47:06.589Z,14.23
2018-06-08T20:52:10.256Z,14.07
2018-06-08T20:57:25.532Z,14.73
2018-06-08T21:02:31.040Z,12.67
2018-06-08T21:07:35.359Z,11.30
2018-06-08T21:12:39.035Z,10.93
2018-06-08T21:17:42.752Z,10.10
2018-06-08T21:22:46.845Z,10.40
2018-06-08T21:27:50.912Z,10.07
2018-06-08T21:32:54.506Z,9.10
2018-06-08T21:38:00.857Z,8.60
2018-06-08T21:43:04.482Z,10.23
2018-06-08T21:48:08.091Z,10.13
2018-06-08T21:53:12.056Z,10.10
2018-06-08T21:58:15.824Z,10.60
2018-06-08T22:03:20.019Z,8.00
2018-06-08T22:08:23.776Z,7.40
2018-06-08T22:13:27.747Z,7.07
2018-06-08T22:18:31.764Z,6.63
2018-06-08T22:23:35.569Z,6.70
2018-06-08T22:28:39.165Z,5.33
2018-06-08T22:33:42.797Z,5.53
2018-06-08T22:38:46.435Z,5.43
2018-06-08T22:43:50.276Z,5.80
2018-06-08T22:48:53.858Z,5.73
2018-06-08T22:53:57.479Z,6.77
2018-06-08T22:59:01.095Z,8.30
2018-06-08T23:04:06.347Z,9.43
2018-06-08T23:09:09.923Z,7.60
2018-06-08T23:14:13.586Z,6.80
2018-06-08T23:19:17.341Z,7.73
2018-06-08T23:24:21.443Z,8.40
2018-06-08T23:29:25.142Z,8.20
2018-06-08T23:34:28.832Z,9.63
2018-06-08T23:39:32.515Z,11.00
2018-06-08T23:44:36.483Z,11.07
2018-06-08T23:49:40.298Z,10.00
2018-06-08T23:54:43.977Z,13.60
2018-06-08T23:59:47.912Z,14.10
